createdAt,value
2023-02-16T00:03:00.305Z,3.83
2023-02-16T00:08:00.577Z,3.76
2023-02-16T00:12:59.977Z,3.83
2023-02-16T00:17:59.914Z,3.57
2023-02-16T04:31:37.472Z,2.34
2023-02-16T04:36:36.818Z,2.15
2023-02-16T04:41:36.805Z,1.93
2023-02-16T04:46:36.791Z,2.02
2023-02-16T04:51:36.675Z,2.13
2023-02-16T04:56:36.564Z,1.94
2023-02-16T05:01:36.567Z,2.15
2023-02-16T05:06:36.700Z,2.09
2023-02-16T05:11:36.399Z,2.20
2023-02-16T05:16:36.252Z,1.65
2023-02-16T05:21:39.397Z,1.65
2023-02-16T05:26:36.229Z,1.65
2023-02-16T05:31:36.528Z,2.31
2023-02-16T05:36:36.034Z,2.64
2023-02-16T05:41:36.319Z,2.64
2023-02-16T05:46:35.957Z,2.51
2023-02-16T05:51:43.433Z,2.33
2023-02-16T05:56:35.796Z,2.22
2023-02-16T06:01:35.796Z,1.94
2023-02-16T06:06:35.747Z,1.98
2023-02-16T06:11:35.850Z,2.12
2023-02-16T06:16:35.524Z,1.71
2023-02-16T06:25:57.649Z,1.87
2023-02-16T06:32:46.727Z,2.49
2023-02-16T06:37:46.664Z,2.40
2023-02-16T06:42:46.754Z,2.19
2023-02-16T06:47:46.578Z,2.23
2023-02-16T06:52:46.583Z,2.58
2023-02-16T06:57:46.394Z,2.76
2023-02-16T07:02:46.650Z,2.94
2023-02-16T07:07:46.236Z,3.07
2023-02-16T07:12:46.285Z,3.39
2023-02-16T07:17:46.100Z,3.53
2023-02-16T07:22:49.100Z,3.68
2023-02-16T07:27:46.206Z,3.60
2023-02-16T07:32:46.129Z,4.19
2023-02-16T07:37:45.970Z,4.36
2023-02-16T07:42:45.817Z,4.51
2023-02-16T07:47:45.805Z,4.58
2023-02-16T07:52:46.086Z,3.75
2023-02-16T07:57:56.113Z,4.73
2023-02-16T08:02:46.456Z,4.62
2023-02-16T08:13:04.644Z,4.65
2023-02-16T08:18:17.420Z,5.28
2023-02-16T08:23:03.465Z,5.04
2023-02-16T08:28:03.295Z,5.09
2023-02-16T08:33:03.242Z,5.27
2023-02-16T08:38:04.568Z,5.40
2023-02-16T08:43:03.180Z,5.46
2023-02-16T08:48:03.228Z,5.59
2023-02-16T08:53:03.093Z,5.78
2023-02-16T08:58:02.948Z,5.92
2023-02-16T09:03:05.891Z,5.89
2023-02-16T09:08:03.262Z,5.82
2023-02-16T09:13:02.793Z,6.44
2023-02-16T09:18:02.700Z,6.54
2023-02-16T09:23:02.554Z,6.65
2023-02-16T09:28:02.561Z,6.86
2023-02-16T09:33:02.871Z,7.02
2023-02-16T09:38:02.829Z,7.20
2023-02-16T09:43:02.372Z,7.49
2023-02-16T09:48:02.465Z,7.75
2023-02-16T09:53:02.306Z,7.96
2023-02-16T09:58:02.044Z,8.18
2023-02-16T10:03:05.250Z,8.53
2023-02-16T10:08:01.969Z,8.44
2023-02-16T10:13:01.958Z,9.13
2023-02-16T10:18:01.887Z,9.48
2023-02-16T10:23:01.773Z,9.56
2023-02-16T10:28:01.902Z,9.83
2023-02-16T10:33:01.815Z,10.09
2023-02-16T10:38:01.628Z,10.52
2023-02-16T10:43:01.566Z,10.78
2023-02-16T10:48:01.846Z,10.78
2023-02-16T10:53:01.607Z,11.19
2023-02-16T10:59:29.702Z,11.36
2023-02-16T11:04:29.558Z,11.39
2023-02-16T11:09:29.452Z,11.59
2023-02-16T11:14:29.172Z,11.74
2023-02-16T11:19:29.299Z,12.05
2023-02-16T11:24:29.256Z,11.96
2023-02-16T11:30:55.861Z,12.30
2023-02-16T11:37:58.238Z,12.56
2023-02-16T11:42:58.274Z,12.31
2023-02-16T11:47:58.110Z,12.75
2023-02-16T11:52:57.970Z,12.92
2023-02-16T11:57:58.138Z,13.14
2023-02-16T12:02:57.943Z,13.27
2023-02-16T12:07:57.905Z,13.69
2023-02-16T12:14:26.289Z,14.31
2023-02-16T12:19:26.612Z,14.02
2023-02-16T12:24:26.189Z,14.34
2023-02-16T12:29:25.955Z,14.38
2023-02-16T12:34:26.045Z,14.60
2023-02-16T12:39:25.800Z,13.83
2023-02-16T12:44:25.860Z,14.28
2023-02-16T12:49:25.803Z,14.24
2023-02-16T12:54:25.728Z,15.01
2023-02-16T12:59:25.665Z,14.80
2023-02-16T13:04:28.545Z,14.28
2023-02-16T13:09:25.506Z,13.98
2023-02-16T13:14:25.390Z,14.43
2023-02-16T13:19:25.350Z,14.68
2023-02-16T13:24:26.093Z,14.78
2023-02-16T13:29:25.430Z,15.28
2023-02-16T13:34:25.171Z,14.67
2023-02-16T13:39:24.992Z,14.74
2023-02-16T13:44:25.918Z,14.31
2023-02-16T13:49:24.996Z,15.49
2023-02-16T13:54:25.084Z,15.19
2023-02-16T13:59:24.854Z,15.39
2023-02-16T14:04:27.915Z,15.11
2023-02-16T14:09:24.768Z,15.60
2023-02-16T14:14:24.692Z,15.74
2023-02-16T14:19:24.479Z,15.96
2023-02-16T14:24:24.552Z,16.18
2023-02-16T14:29:24.473Z,15.97
2023-02-16T14:34:24.426Z,15.43
2023-02-16T14:39:24.336Z,15.19
2023-02-16T14:44:24.301Z,15.20
2023-02-16T14:49:24.213Z,15.12
2023-02-16T14:54:24.105Z,15.12
2023-02-16T14:59:23.966Z,14.62
2023-02-16T15:05:44.626Z,14.84
2023-02-16T15:10:44.501Z,14.61
2023-02-16T15:15:44.497Z,14.25
2023-02-16T15:20:44.458Z,13.87
2023-02-16T15:25:44.328Z,14.28
2023-02-16T15:30:44.152Z,13.84
2023-02-16T15:35:44.354Z,13.87
2023-02-16T15:40:44.159Z,13.46
2023-02-16T15:45:44.120Z,13.25
2023-02-16T15:50:43.941Z,13.40
2023-02-16T15:55:54.708Z,13.54
2023-02-16T16:00:51.407Z,13.15
2023-02-16T16:05:43.826Z,13.36
2023-02-16T16:10:43.719Z,13.47
2023-02-16T16:15:43.720Z,13.04
2023-02-16T16:20:43.579Z,13.06
2023-02-16T16:25:43.716Z,13.20
2023-02-16T16:34:06.721Z,12.96
2023-02-16T16:39:04.932Z,13.18
2023-02-16T16:44:12.557Z,13.21
2023-02-16T16:49:04.677Z,12.56
2023-02-16T16:54:04.581Z,12.45
2023-02-16T16:59:04.490Z,12.29
2023-02-16T17:04:04.607Z,12.15
2023-02-16T17:09:04.614Z,12.20
2023-02-16T17:14:04.397Z,12.24
2023-02-16T17:35:38.986Z,12.44
2023-02-16T17:40:47.918Z,12.31
2023-02-16T17:45:38.896Z,11.71
2023-02-16T17:50:39.034Z,11.87
2023-02-16T18:03:30.964Z,11.25
2023-02-16T18:25:07.235Z,10.98
2023-02-16T18:35:03.087Z,10.63
2023-02-16T18:40:03.093Z,10.59
2023-02-16T18:45:03.112Z,10.42
2023-02-16T18:50:02.885Z,10.60
2023-02-16T18:55:03.108Z,10.83
2023-02-16T19:00:02.819Z,10.70
2023-02-16T19:05:02.856Z,10.65
2023-02-16T19:10:02.614Z,10.24
2023-02-16T19:15:02.625Z,10.19
2023-02-16T19:20:02.584Z,10.34
2023-02-16T19:25:12.975Z,10.46
2023-02-16T19:30:02.745Z,9.89
2023-02-16T19:35:02.870Z,10.12
2023-02-16T19:40:02.362Z,10.60
2023-02-16T20:06:08.706Z,10.15
2023-02-16T20:11:08.626Z,10.01
2023-02-16T20:16:08.969Z,10.01
2023-02-16T20:21:08.700Z,10.14
2023-02-16T20:48:58.577Z,10.14
2023-02-16T20:53:57.286Z,10.12
2023-02-16T20:58:57.535Z,9.85
2023-02-16T21:04:02.358Z,10.09
2023-02-16T21:08:58.001Z,9.86
2023-02-16T21:13:57.382Z,9.97
2023-02-16T21:21:07.175Z,9.83
2023-02-16T21:26:07.423Z,9.89
2023-02-16T21:31:07.151Z,9.96
2023-02-16T21:36:07.251Z,10.04
2023-02-16T21:41:06.858Z,10.18
2023-02-16T21:46:07.217Z,10.34
2023-02-16T21:51:06.731Z,10.30
2023-02-16T21:56:07.224Z,10.55
2023-02-16T22:01:06.725Z,10.26
2023-02-16T22:06:06.920Z,10.36
2023-02-16T22:11:10.628Z,10.24
2023-02-16T22:16:14.063Z,10.24
2023-02-16T22:21:06.404Z,10.25
2023-02-16T22:26:06.734Z,10.15
2023-02-16T22:31:06.213Z,10.18
2023-02-16T22:36:06.494Z,10.15
2023-02-16T22:41:06.202Z,10.17
2023-02-16T22:46:06.532Z,10.40
2023-02-16T22:51:06.088Z,10.39
2023-02-16T23:10:02.886Z,10.55
2023-02-16T23:15:02.910Z,10.24
2023-02-16T23:20:02.960Z,10.56
2023-02-16T23:25:02.810Z,10.37
2023-02-16T23:30:02.710Z,10.32
2023-02-16T23:35:02.645Z,10.03
2023-02-16T23:40:02.532Z,10.40
2023-02-16T23:45:02.498Z,10.65
2023-02-16T23:50:02.534Z,10.66
2023-02-16T23:55:02.344Z,10.74
